createdAt,value
2022-10-25T00:01:42.235Z,94.47
2022-10-25T00:04:08.886Z,94.94
2022-10-25T00:06:35.362Z,94.32
2022-10-25T00:09:01.879Z,94.63
2022-10-25T00:11:29.887Z,95.06
2022-10-25T00:13:58.331Z,95.00
2022-10-25T00:16:28.650Z,94.55
2022-10-25T00:18:55.621Z,94.82
2022-10-25T00:21:22.684Z,94.51
2022-10-25T00:23:50.678Z,95.64
2022-10-25T00:26:17.706Z,95.31
2022-10-25T00:28:44.242Z,94.83
2022-10-25T00:31:13.575Z,94.67
2022-10-25T00:33:41.727Z,94.74
2022-10-25T00:36:11.695Z,95.32
2022-10-25T00:38:38.795Z,95.31
2022-10-25T00:41:06.558Z,95.60
2022-10-25T00:44:03.322Z,95.23
2022-10-25T00:46:32.034Z,95.24
2022-10-25T00:49:04.559Z,95.16
2022-10-25T00:51:37.297Z,95.61
2022-10-25T00:54:04.338Z,95.26
2022-10-25T00:56:34.982Z,95.42
2022-10-25T00:59:06.736Z,95.06
2022-10-25T01:01:34.023Z,95.52
2022-10-25T01:04:04.919Z,95.90
2022-10-25T01:06:38.445Z,96.36
2022-10-25T01:09:07.296Z,95.88
2022-10-25T01:11:36.072Z,96.28
2022-10-25T01:14:02.591Z,95.67
2022-10-25T01:16:41.952Z,96.56
2022-10-25T01:19:27.254Z,97.57
2022-10-25T01:22:01.868Z,95.66
2022-10-25T01:25:00.527Z,96.76
2022-10-25T01:27:29.961Z,95.68
2022-10-25T01:30:08.546Z,95.75
2022-10-25T01:32:38.884Z,94.99
2022-10-25T01:35:52.061Z,96.75
2022-10-25T01:38:56.654Z,95.99
2022-10-25T01:42:00.896Z,95.89
2022-10-25T01:44:44.237Z,95.94
2022-10-25T01:47:17.849Z,95.62
2022-10-25T01:50:11.108Z,94.76
2022-10-25T01:52:37.622Z,94.33
2022-10-25T01:55:08.577Z,94.53
2022-10-25T01:57:37.908Z,94.57
2022-10-25T02:00:04.319Z,94.57
2022-10-25T02:02:38.274Z,95.96
2022-10-25T02:05:27.988Z,96.60
2022-10-25T02:08:36.077Z,96.48
2022-10-25T02:11:23.376Z,95.15
2022-10-25T02:14:25.691Z,95.35
2022-10-25T02:17:17.661Z,96.40
2022-10-25T02:19:49.673Z,95.39
2022-10-25T02:22:19.482Z,94.02
2022-10-25T02:24:48.489Z,94.40
2022-10-25T02:27:17.892Z,95.01
2022-10-25T02:29:46.898Z,94.18
2022-10-25T02:32:13.676Z,93.71
2022-10-25T02:34:41.361Z,93.30
2022-10-25T02:37:07.931Z,93.58
2022-10-25T02:39:35.260Z,94.42
2022-10-25T02:42:05.674Z,93.88
2022-10-25T02:44:32.158Z,94.09
2022-10-25T02:46:58.652Z,94.25
2022-10-25T02:49:25.381Z,94.09
2022-10-25T02:54:23.327Z,95.06
2022-10-25T02:56:52.391Z,94.43
2022-10-25T02:59:19.960Z,94.83
2022-10-25T03:01:47.083Z,95.15
2022-10-25T03:04:13.661Z,95.73
2022-10-25T03:06:41.116Z,96.12
2022-10-25T03:09:07.598Z,96.33
2022-10-25T03:11:34.122Z,94.83
2022-10-25T03:14:00.568Z,95.20
2022-10-25T03:16:27.083Z,96.19
2022-10-25T03:18:57.208Z,96.46
2022-10-25T03:21:24.056Z,96.10
2022-10-25T03:23:50.579Z,96.18
2022-10-25T03:26:17.080Z,96.20
2022-10-25T03:28:43.542Z,94.97
2022-10-25T03:31:14.955Z,95.54
2022-10-25T03:33:41.617Z,95.21
2022-10-25T03:36:08.553Z,95.33
2022-10-25T03:38:35.204Z,96.39
2022-10-25T03:41:01.800Z,96.61
2022-10-25T03:43:28.321Z,95.64
2022-10-25T03:45:54.790Z,96.51
2022-10-25T03:48:21.255Z,96.04
2022-10-25T03:50:47.881Z,95.56
2022-10-25T03:53:14.378Z,96.02
2022-10-25T03:55:41.120Z,95.83
2022-10-25T03:58:07.613Z,95.67
2022-10-25T04:00:34.225Z,96.10
2022-10-25T04:03:02.922Z,95.78
2022-10-25T04:05:30.794Z,95.00
2022-10-25T04:07:57.822Z,96.04
2022-10-25T04:10:25.316Z,96.19
2022-10-25T04:12:53.695Z,95.80
2022-10-25T04:15:22.003Z,95.25
2022-10-25T04:17:52.551Z,95.51
2022-10-25T04:20:19.801Z,95.60
2022-10-25T04:22:46.371Z,96.18
2022-10-25T04:25:12.847Z,95.91
2022-10-25T04:27:39.432Z,95.36
2022-10-25T04:30:06.339Z,95.63
2022-10-25T04:32:32.829Z,95.42
2022-10-25T04:34:59.290Z,95.78
2022-10-25T04:37:44.547Z,96.02
2022-10-25T04:40:31.785Z,96.63
2022-10-25T04:43:18.417Z,97.25
2022-10-25T04:46:05.288Z,95.73
2022-10-25T04:48:31.831Z,96.30
2022-10-25T04:51:01.425Z,96.07
2022-10-25T04:53:28.157Z,96.42
2022-10-25T04:55:58.406Z,96.49
2022-10-25T04:58:28.898Z,96.33
2022-10-25T05:01:02.985Z,95.91
2022-10-25T05:03:30.593Z,95.88
2022-10-25T05:06:08.877Z,96.72
2022-10-25T05:08:36.454Z,96.74
2022-10-25T05:11:02.919Z,96.50
2022-10-25T05:13:35.357Z,96.87
2022-10-25T05:16:02.181Z,97.00
2022-10-25T05:18:28.920Z,96.91
2022-10-25T05:20:57.830Z,98.09
2022-10-25T05:23:25.969Z,97.27
2022-10-25T05:26:07.836Z,97.58
2022-10-25T05:28:36.270Z,97.98
2022-10-25T05:31:08.118Z,97.31
2022-10-25T05:33:34.845Z,97.62
2022-10-25T05:36:02.984Z,97.48
2022-10-25T05:38:32.959Z,97.29
2022-10-25T05:41:02.134Z,98.20
2022-10-25T05:43:28.713Z,97.45
2022-10-25T05:46:03.972Z,97.44
2022-10-25T05:48:31.203Z,96.83
2022-10-25T05:51:28.909Z,98.07
2022-10-25T05:54:04.967Z,96.76
2022-10-25T05:56:33.219Z,96.28
2022-10-25T05:59:09.618Z,96.78
2022-10-25T06:01:38.753Z,96.60
2022-10-25T06:04:06.267Z,96.20
2022-10-25T06:06:33.926Z,97.12
2022-10-25T06:09:01.592Z,96.26
2022-10-25T06:11:29.099Z,96.01
2022-10-25T06:13:55.904Z,96.77
2022-10-25T06:16:22.805Z,95.77
2022-10-25T06:18:49.703Z,96.20
2022-10-25T06:21:19.835Z,95.54
2022-10-25T06:23:47.009Z,95.68
2022-10-25T06:26:15.862Z,95.38
2022-10-25T06:28:42.920Z,95.02
2022-10-25T06:31:16.992Z,95.07
2022-10-25T06:33:44.096Z,95.98
2022-10-25T06:36:17.024Z,95.76
2022-10-25T06:38:44.350Z,94.91
2022-10-25T06:41:21.271Z,95.90
2022-10-25T06:43:49.276Z,95.16
2022-10-25T06:46:27.494Z,95.45
2022-10-25T06:48:55.683Z,96.18
2022-10-25T06:51:23.097Z,96.04
2022-10-25T06:54:00.609Z,97.20
2022-10-25T06:56:28.996Z,95.90
2022-10-25T06:58:56.341Z,96.65
2022-10-25T07:01:24.526Z,96.20
2022-10-25T07:03:53.618Z,95.93
2022-10-25T07:06:29.410Z,96.93
2022-10-25T07:08:59.040Z,96.22
2022-10-25T07:11:27.534Z,96.67
2022-10-25T07:13:55.842Z,96.48
2022-10-25T07:16:22.388Z,95.82
2022-10-25T07:18:49.398Z,96.37
2022-10-25T07:21:21.693Z,95.85
2022-10-25T07:23:50.114Z,96.54
2022-10-25T07:26:43.510Z,96.82
2022-10-25T07:29:10.339Z,95.60
2022-10-25T07:31:42.214Z,96.26
2022-10-25T07:34:12.355Z,96.80
2022-10-25T07:36:57.665Z,95.98
2022-10-25T07:39:24.315Z,96.73
2022-10-25T07:41:51.102Z,96.75
2022-10-25T07:44:22.565Z,97.16
2022-10-25T07:46:52.190Z,97.18
2022-10-25T07:49:18.732Z,97.02
2022-10-25T07:51:45.302Z,97.54
2022-10-25T07:54:12.069Z,97.17
2022-10-25T07:56:38.612Z,97.57
2022-10-25T07:59:05.207Z,98.05
2022-10-25T08:01:31.861Z,97.14
2022-10-25T08:03:58.431Z,97.29
2022-10-25T08:06:25.719Z,97.85
2022-10-25T08:08:53.186Z,97.60
2022-10-25T08:11:19.997Z,97.62
2022-10-25T08:13:49.395Z,97.99
2022-10-25T08:16:15.955Z,97.97
2022-10-25T08:18:43.980Z,98.27
2022-10-25T08:21:10.574Z,98.17
2022-10-25T08:23:37.158Z,98.49
2022-10-25T08:26:03.887Z,98.42
2022-10-25T08:28:31.384Z,98.32
2022-10-25T08:30:58.311Z,97.62
2022-10-25T08:33:24.941Z,98.42
2022-10-25T08:35:51.436Z,98.48
2022-10-25T08:38:18.214Z,97.97
2022-10-25T08:41:10.340Z,98.00
2022-10-25T08:43:55.044Z,98.20
2022-10-25T08:46:31.475Z,97.76
2022-10-25T08:49:15.792Z,98.13
2022-10-25T08:51:46.141Z,97.76
2022-10-25T08:54:21.848Z,96.35
2022-10-25T08:57:10.561Z,96.80
2022-10-25T08:59:43.218Z,97.68
2022-10-25T09:02:33.836Z,98.46
2022-10-25T09:05:00.449Z,96.70
2022-10-25T09:07:59.796Z,96.41
2022-10-25T09:10:50.190Z,97.92
2022-10-25T09:13:28.727Z,95.85
2022-10-25T09:15:59.205Z,95.17
2022-10-25T09:18:39.635Z,94.96
2022-10-25T09:21:17.559Z,95.24
2022-10-25T09:24:22.241Z,95.87
2022-10-25T09:27:03.346Z,94.94
2022-10-25T09:29:37.904Z,95.21
2022-10-25T09:32:16.051Z,94.43
2022-10-25T09:34:43.501Z,92.96
2022-10-25T09:37:33.038Z,92.75
2022-10-25T09:40:05.007Z,91.45
2022-10-25T09:42:39.158Z,91.86
2022-10-25T09:45:42.602Z,94.11
2022-10-25T09:48:21.434Z,92.09
2022-10-25T09:50:53.769Z,91.89
2022-10-25T09:53:23.258Z,90.07
2022-10-25T09:55:53.034Z,89.67
2022-10-25T09:58:27.213Z,89.69
2022-10-25T10:00:56.416Z,89.77
2022-10-25T10:03:27.699Z,89.14
2022-10-25T10:17:18.292Z,88.79
2022-10-25T10:20:09.280Z,91.07
2022-10-25T10:26:36.620Z,88.58
2022-10-25T10:29:09.348Z,87.90
2022-10-25T10:31:41.878Z,88.59
2022-10-25T10:34:31.668Z,89.66
2022-10-25T10:37:27.340Z,89.56
2022-10-25T10:39:59.354Z,87.83
2022-10-25T10:42:35.283Z,86.99
2022-10-25T10:45:03.834Z,85.49
2022-10-25T10:47:35.961Z,84.73
2022-10-25T10:50:23.161Z,84.68
2022-10-25T10:52:59.395Z,84.05
2022-10-25T10:56:01.452Z,85.60
2022-10-25T10:58:36.700Z,85.03
2022-10-25T11:01:13.797Z,84.59
2022-10-25T11:03:45.210Z,82.94
2022-10-25T11:06:31.342Z,83.14
2022-10-25T11:09:13.457Z,83.37
2022-10-25T11:11:40.475Z,80.46
2022-10-25T11:14:15.366Z,79.24
2022-10-25T11:16:45.154Z,79.83
2022-10-25T11:19:23.078Z,79.15
2022-10-25T11:22:02.675Z,80.98
2022-10-25T11:24:45.392Z,79.71
2022-10-25T11:27:39.459Z,77.79
2022-10-25T11:30:28.253Z,81.43
2022-10-25T11:33:23.783Z,80.25
2022-10-25T11:36:20.897Z,79.41
2022-10-25T11:39:12.787Z,81.03
2022-10-25T11:41:49.016Z,80.82
2022-10-25T11:44:44.327Z,77.78
2022-10-25T11:47:31.212Z,80.30
2022-10-25T11:50:03.767Z,79.39
2022-10-25T11:52:54.479Z,76.65
2022-10-25T11:55:42.650Z,76.81
2022-10-25T11:58:24.742Z,78.36
2022-10-25T12:01:23.992Z,76.77
2022-10-25T12:03:53.509Z,74.98
2022-10-25T12:06:35.186Z,75.97
2022-10-25T12:09:24.869Z,76.57
2022-10-25T12:12:05.251Z,76.87
2022-10-25T12:14:41.402Z,75.55
2022-10-25T12:17:21.420Z,76.60
2022-10-25T12:19:51.906Z,75.04
2022-10-25T12:22:28.927Z,74.78
2022-10-25T12:25:02.978Z,72.76
2022-10-25T12:27:30.877Z,71.85
2022-10-25T12:30:07.417Z,72.94
2022-10-25T12:32:50.318Z,72.19
2022-10-25T12:35:35.205Z,72.07
2022-10-25T12:38:33.663Z,70.56
2022-10-25T12:41:05.888Z,70.75
2022-10-25T12:43:58.704Z,70.20
2022-10-25T12:46:41.278Z,69.62
2022-10-25T12:49:15.402Z,68.96
2022-10-25T12:52:00.490Z,69.65
2022-10-25T12:54:54.866Z,68.32
2022-10-25T12:57:48.341Z,70.01
2022-10-25T13:00:24.377Z,70.20
2022-10-25T13:03:28.595Z,69.48
2022-10-25T13:06:13.495Z,70.14
2022-10-25T13:08:40.981Z,71.05
2022-10-25T13:11:09.305Z,70.33
2022-10-25T13:13:54.169Z,70.74
2022-10-25T13:16:39.030Z,71.82
2022-10-25T13:19:35.947Z,72.09
2022-10-25T13:22:12.863Z,71.92
2022-10-25T13:24:45.827Z,72.43
2022-10-25T13:27:12.225Z,71.43
2022-10-25T13:30:03.273Z,71.44
2022-10-25T13:32:35.271Z,72.09
2022-10-25T13:35:04.143Z,72.77
2022-10-25T13:37:31.039Z,72.84
2022-10-25T13:40:19.505Z,73.19
2022-10-25T13:42:49.066Z,72.81
2022-10-25T13:45:33.753Z,72.53
2022-10-25T13:48:10.624Z,73.20
2022-10-25T13:50:53.053Z,72.20
2022-10-25T13:53:39.422Z,73.19
2022-10-25T13:56:24.294Z,72.73
2022-10-25T13:58:53.160Z,72.20
2022-10-25T14:01:20.664Z,72.33
2022-10-25T14:03:50.891Z,72.32
2022-10-25T14:06:29.940Z,72.09
2022-10-25T14:09:17.819Z,71.94
2022-10-25T14:11:54.107Z,70.94
2022-10-25T14:14:36.384Z,71.25
2022-10-25T14:17:12.230Z,70.40
2022-10-25T14:19:46.958Z,69.79
2022-10-25T14:22:33.294Z,70.11
2022-10-25T14:25:05.836Z,69.94
2022-10-25T14:27:36.093Z,70.03
2022-10-25T14:30:26.331Z,69.84
2022-10-25T14:33:01.979Z,70.16
2022-10-25T14:35:33.735Z,70.12
2022-10-25T14:38:01.461Z,69.45
2022-10-25T14:40:30.845Z,69.75
2022-10-25T14:43:36.945Z,69.89
2022-10-25T14:46:06.316Z,70.85
2022-10-25T14:48:33.718Z,69.99
2022-10-25T14:51:05.859Z,70.34
2022-10-25T14:53:33.371Z,70.31
2022-10-25T14:56:02.956Z,70.08
2022-10-25T14:58:40.944Z,70.19
2022-10-25T15:01:10.717Z,70.83
2022-10-25T15:03:43.281Z,71.21
2022-10-25T15:06:12.096Z,71.37
2022-10-25T15:08:40.073Z,70.96
2022-10-25T15:11:13.645Z,71.04
2022-10-25T15:13:42.322Z,71.05
2022-10-25T15:16:30.225Z,70.79
2022-10-25T15:19:08.989Z,70.58
2022-10-25T15:21:44.554Z,70.27
2022-10-25T15:24:18.765Z,70.65
2022-10-25T15:27:07.856Z,70.62
2022-10-25T15:29:40.379Z,71.69
2022-10-25T15:32:13.359Z,71.05
2022-10-25T15:34:42.400Z,71.08
2022-10-25T15:37:13.693Z,71.34
2022-10-25T15:42:14.533Z,71.43
2022-10-25T15:44:42.369Z,71.86
2022-10-25T15:47:23.489Z,71.70
2022-10-25T15:49:53.283Z,71.54
2022-10-25T15:52:20.586Z,71.18
2022-10-25T15:54:47.529Z,71.34
2022-10-25T15:57:13.982Z,71.26
2022-10-25T15:59:40.460Z,71.54
2022-10-25T16:02:27.103Z,71.93
2022-10-25T16:04:54.077Z,72.15
2022-10-25T16:07:20.704Z,72.92
2022-10-25T16:09:47.301Z,71.86
2022-10-25T16:12:20.528Z,72.42
2022-10-25T16:14:49.636Z,72.77
2022-10-25T16:17:16.221Z,72.58
2022-10-25T16:19:42.663Z,73.32
2022-10-25T16:22:09.224Z,73.57
2022-10-25T16:24:35.783Z,74.29
2022-10-25T16:27:02.413Z,74.23
2022-10-25T16:29:29.662Z,74.49
2022-10-25T16:31:56.255Z,74.24
2022-10-25T16:34:22.882Z,74.78
2022-10-25T16:36:50.834Z,75.04
2022-10-25T16:39:17.527Z,74.96
2022-10-25T16:41:45.669Z,75.42
2022-10-25T16:44:13.694Z,75.40
2022-10-25T16:46:40.230Z,75.61
2022-10-25T16:49:09.180Z,76.62
2022-10-25T16:51:36.680Z,76.82
2022-10-25T16:54:04.331Z,76.80
2022-10-25T16:56:31.151Z,77.43
2022-10-25T16:58:57.682Z,77.47
2022-10-25T17:01:38.069Z,77.09
2022-10-25T17:04:09.735Z,77.29
2022-10-25T17:06:41.205Z,78.05
2022-10-25T17:09:08.901Z,78.21
2022-10-25T17:11:36.351Z,78.67
2022-10-25T17:14:03.300Z,78.20
2022-10-25T17:16:29.819Z,78.37
2022-10-25T17:18:56.357Z,79.24
2022-10-25T17:21:23.639Z,79.47
2022-10-25T17:23:50.181Z,79.76
2022-10-25T17:26:16.768Z,79.20
2022-10-25T17:28:44.485Z,79.76
2022-10-25T17:31:13.014Z,79.80
2022-10-25T17:33:40.429Z,79.68
2022-10-25T17:36:13.072Z,80.67
2022-10-25T17:38:40.323Z,81.04
2022-10-25T17:41:06.948Z,80.59
2022-10-25T17:43:38.517Z,81.58
2022-10-25T17:46:08.445Z,81.69
2022-10-25T17:48:35.234Z,80.87
2022-10-25T17:51:07.257Z,82.27
2022-10-25T17:53:34.592Z,81.50
2022-10-25T17:56:20.101Z,82.34
2022-10-25T17:58:48.093Z,81.21
2022-10-25T18:01:20.592Z,81.77
2022-10-25T18:03:47.925Z,82.38
2022-10-25T18:06:17.549Z,82.66
2022-10-25T18:08:45.404Z,82.15
2022-10-25T18:11:22.214Z,83.17
2022-10-25T18:13:50.641Z,81.92
2022-10-25T18:16:17.218Z,82.53
2022-10-25T18:18:44.060Z,83.06
2022-10-25T18:21:14.022Z,83.05
2022-10-25T18:23:41.462Z,82.43
2022-10-25T18:26:11.022Z,82.96
2022-10-25T18:28:38.345Z,82.37
2022-10-25T18:31:07.607Z,82.83
2022-10-25T18:33:36.165Z,82.81
2022-10-25T18:36:08.211Z,82.67
2022-10-25T18:38:34.828Z,83.01
2022-10-25T18:41:06.370Z,82.06
2022-10-25T18:43:32.896Z,82.61
2022-10-25T18:46:00.099Z,82.85
2022-10-25T18:48:27.175Z,81.96
2022-10-25T18:50:54.013Z,82.25
2022-10-25T18:53:21.216Z,82.73
2022-10-25T18:55:51.038Z,81.75
2022-10-25T18:58:17.874Z,83.09
2022-10-25T19:00:45.094Z,81.81
2022-10-25T19:03:12.836Z,81.90
2022-10-25T19:05:40.275Z,82.71
2022-10-25T19:08:07.921Z,82.30
2022-10-25T19:10:38.758Z,81.80
2022-10-25T19:13:06.845Z,82.44
2022-10-25T19:15:33.819Z,81.81
2022-10-25T19:18:00.708Z,81.60
2022-10-25T19:20:27.261Z,82.86
2022-10-25T19:22:58.357Z,82.67
2022-10-25T19:25:26.456Z,82.65
2022-10-25T19:27:53.012Z,82.45
2022-10-25T19:30:19.658Z,81.78
2022-10-25T19:32:46.123Z,82.64
2022-10-25T19:35:12.670Z,82.47
2022-10-25T19:37:40.062Z,83.08
2022-10-25T19:40:08.316Z,82.23
2022-10-25T19:42:34.938Z,83.36
2022-10-25T19:45:02.327Z,83.28
2022-10-25T19:47:28.831Z,82.32
2022-10-25T19:49:55.390Z,82.34
2022-10-25T19:52:21.894Z,83.29
2022-10-25T19:54:48.696Z,82.48
2022-10-25T19:57:15.176Z,82.78
2022-10-25T19:59:41.626Z,82.29
2022-10-25T20:02:08.969Z,82.70
2022-10-25T20:04:36.001Z,82.78
2022-10-25T20:07:02.634Z,83.35
2022-10-25T20:09:29.105Z,83.15
2022-10-25T20:11:55.713Z,83.64
2022-10-25T20:14:22.200Z,82.93
2022-10-25T20:16:48.679Z,83.44
2022-10-25T20:19:15.390Z,83.46
2022-10-25T20:21:42.099Z,82.74
2022-10-25T20:24:09.964Z,83.52
2022-10-25T20:26:41.196Z,83.57
2022-10-25T20:29:20.187Z,83.60
2022-10-25T20:31:47.908Z,83.35
2022-10-25T20:34:14.484Z,83.28
2022-10-25T20:36:41.116Z,83.50
2022-10-25T20:39:07.595Z,82.51
2022-10-25T20:41:35.177Z,83.37
2022-10-25T20:44:05.697Z,82.10
2022-10-25T20:46:33.500Z,82.91
2022-10-25T20:49:00.922Z,82.83
2022-10-25T20:51:28.141Z,82.84
2022-10-25T20:53:54.750Z,82.50
2022-10-25T20:56:22.334Z,82.62
2022-10-25T20:58:49.027Z,83.05
2022-10-25T21:01:16.428Z,83.46
2022-10-25T21:03:43.109Z,82.49
2022-10-25T21:06:12.259Z,82.87
2022-10-25T21:08:39.178Z,82.75
2022-10-25T21:11:10.022Z,82.64
2022-10-25T21:13:37.501Z,82.56
2022-10-25T21:16:08.965Z,82.97
2022-10-25T21:18:36.136Z,82.68
2022-10-25T21:21:05.875Z,82.59
2022-10-25T21:23:32.524Z,82.58
2022-10-25T21:26:04.015Z,82.00
2022-10-25T21:28:48.669Z,82.28
2022-10-25T21:31:16.487Z,82.56
2022-10-25T21:33:49.821Z,82.95
2022-10-25T21:36:18.703Z,82.79
2022-10-25T21:38:45.178Z,82.06
2022-10-25T21:41:15.988Z,82.71
2022-10-25T21:43:47.730Z,82.34
2022-10-25T21:46:15.554Z,82.30
2022-10-25T21:48:43.789Z,82.28
2022-10-25T21:51:10.285Z,82.41
2022-10-25T21:53:36.885Z,82.15
2022-10-25T21:56:12.039Z,82.67
2022-10-25T21:58:40.244Z,82.21
2022-10-25T22:01:12.328Z,82.20
2022-10-25T22:03:40.239Z,82.68
2022-10-25T22:06:11.046Z,82.07
2022-10-25T22:08:38.304Z,82.20
2022-10-25T22:11:08.399Z,82.37
2022-10-25T22:13:35.346Z,82.08
2022-10-25T22:16:15.566Z,81.84
2022-10-25T22:18:42.920Z,82.60
2022-10-25T22:21:11.859Z,83.04
2022-10-25T22:23:39.479Z,82.75
2022-10-25T22:26:11.475Z,82.19
2022-10-25T22:28:40.703Z,82.55
2022-10-25T22:31:16.797Z,82.97
2022-10-25T22:33:44.435Z,81.91
2022-10-25T22:36:20.879Z,82.91
2022-10-25T22:38:47.285Z,82.28
2022-10-25T22:41:22.190Z,82.25
2022-10-25T22:43:49.245Z,82.72
2022-10-25T22:46:20.169Z,82.61
2022-10-25T22:48:46.622Z,82.76
2022-10-25T22:51:13.190Z,83.43
2022-10-25T22:53:40.653Z,82.33
2022-10-25T22:56:09.807Z,82.29
2022-10-25T22:58:38.142Z,83.04
2022-10-25T23:01:07.718Z,82.74
2022-10-25T23:03:35.455Z,82.48
2022-10-25T23:06:03.545Z,83.33
2022-10-25T23:08:31.020Z,83.36
2022-10-25T23:11:05.371Z,83.46
2022-10-25T23:13:33.523Z,83.40
2022-10-25T23:16:00.577Z,83.16
2022-10-25T23:18:27.820Z,82.75
2022-10-25T23:21:00.230Z,83.45
2022-10-25T23:23:28.817Z,82.61
2022-10-25T23:25:59.896Z,83.01
2022-10-25T23:28:27.991Z,82.38
2022-10-25T23:30:54.449Z,82.69
2022-10-25T23:33:20.934Z,82.32
2022-10-25T23:35:47.411Z,82.17
2022-10-25T23:38:14.172Z,83.05
2022-10-25T23:40:45.729Z,82.26
2022-10-25T23:43:12.179Z,81.95
2022-10-25T23:45:39.853Z,82.00
2022-10-25T23:48:06.363Z,82.36
2022-10-25T23:50:32.826Z,82.05
2022-10-25T23:52:59.298Z,82.50
2022-10-25T23:55:25.753Z,82.32
2022-10-25T23:57:58.716Z,82.03
